createdAt,value
2018-08-24T00:00:59.175Z,0.00
2018-08-24T00:01:59.215Z,0.00
2018-08-24T00:02:59.313Z,0.00
2018-08-24T00:03:59.298Z,0.00
2018-08-24T00:04:59.342Z,0.00
2018-08-24T00:05:59.376Z,0.00
2018-08-24T00:06:59.418Z,0.00
2018-08-24T00:07:59.508Z,0.00
2018-08-24T00:08:59.496Z,0.00
2018-08-24T00:09:59.538Z,0.00
2018-08-24T00:10:59.580Z,0.00
2018-08-24T00:11:59.618Z,0.00
2018-08-24T00:12:59.665Z,0.00
2018-08-24T00:13:59.698Z,0.00
2018-08-24T00:23:38.518Z,0.00
2018-08-24T00:24:38.539Z,0.00
2018-08-24T00:25:38.578Z,0.00
2018-08-24T00:26:38.626Z,0.00
2018-08-24T00:27:38.659Z,0.00
2018-08-24T00:28:38.699Z,0.00
2018-08-24T00:29:38.740Z,0.00
2018-08-24T00:30:38.783Z,0.00
2018-08-24T00:31:38.883Z,0.00
2018-08-24T00:32:38.863Z,0.00
2018-08-24T00:33:38.905Z,0.00
2018-08-24T00:34:38.947Z,0.00
2018-08-24T00:35:38.985Z,0.00
2018-08-24T00:36:39.022Z,0.00
2018-08-24T00:37:39.063Z,0.00
2018-08-24T00:38:39.102Z,0.00
2018-08-24T00:39:39.142Z,0.00
2018-08-24T00:40:39.183Z,0.00
2018-08-24T00:41:39.223Z,0.00
2018-08-24T00:42:39.300Z,0.00
2018-08-24T00:43:39.304Z,0.00
2018-08-24T00:44:39.344Z,0.00
2018-08-24T00:45:39.385Z,0.00
2018-08-24T00:46:39.425Z,0.00
2018-08-24T00:47:39.463Z,0.00
2018-08-24T00:48:39.508Z,0.00
2018-08-24T00:49:39.549Z,0.00
2018-08-24T00:50:39.588Z,0.00
2018-08-24T00:51:39.625Z,0.00
2018-08-24T00:52:39.667Z,0.00
2018-08-24T00:53:39.706Z,0.00
2018-08-24T00:54:39.745Z,0.00
2018-08-24T00:55:39.785Z,0.00
2018-08-24T00:56:39.826Z,0.00
2018-08-24T00:57:39.866Z,0.00
2018-08-24T00:58:39.911Z,0.00
2018-08-24T00:59:39.946Z,0.00
2018-08-24T01:00:39.986Z,0.00
2018-08-24T01:01:40.028Z,0.00
2018-08-24T01:02:40.069Z,0.00
2018-08-24T01:03:40.107Z,0.00
2018-08-24T01:04:40.150Z,0.00
2018-08-24T01:05:40.190Z,0.00
2018-08-24T01:06:40.230Z,0.00
2018-08-24T01:07:40.380Z,0.00
2018-08-24T01:08:40.308Z,0.00
2018-08-24T01:09:40.350Z,0.00
2018-08-24T01:10:40.403Z,0.00
2018-08-24T01:11:40.431Z,0.00
2018-08-24T01:12:40.477Z,0.00
2018-08-24T01:13:40.512Z,0.00
2018-08-24T01:14:40.551Z,0.00
2018-08-24T01:15:40.591Z,0.00
2018-08-24T01:16:40.631Z,0.00
2018-08-24T01:17:40.670Z,0.00
2018-08-24T01:18:40.709Z,0.00
2018-08-24T01:19:40.751Z,0.00
2018-08-24T01:20:40.791Z,0.00
2018-08-24T01:21:40.831Z,0.00
2018-08-24T01:22:40.870Z,0.00
2018-08-24T01:23:40.912Z,0.00
2018-08-24T01:24:40.960Z,0.00
2018-08-24T01:25:40.992Z,0.00
2018-08-24T01:26:41.032Z,0.00
2018-08-24T01:27:41.072Z,0.00
2018-08-24T01:28:41.113Z,0.00
2018-08-24T01:29:41.160Z,0.00
2018-08-24T01:30:41.193Z,0.00
2018-08-24T01:31:41.233Z,0.00
2018-08-24T01:32:41.273Z,0.00
2018-08-24T01:33:41.315Z,0.00
2018-08-24T01:34:41.352Z,0.00
2018-08-24T01:35:41.394Z,0.00
2018-08-24T01:36:41.486Z,0.00
2018-08-24T01:37:41.487Z,0.00
2018-08-24T01:38:41.515Z,0.00
2018-08-24T01:39:41.563Z,0.00
2018-08-24T01:40:41.596Z,0.00
2018-08-24T01:41:41.636Z,0.00
2018-08-24T01:42:41.674Z,0.00
2018-08-24T01:43:41.715Z,0.00
2018-08-24T01:44:41.758Z,0.00
2018-08-24T01:45:41.794Z,0.00
2018-08-24T01:46:41.837Z,0.00
2018-08-24T01:47:41.876Z,0.00
2018-08-24T01:48:41.914Z,0.00
2018-08-24T01:49:41.955Z,0.00
2018-08-24T01:50:41.996Z,0.00
2018-08-24T01:51:42.036Z,0.00
2018-08-24T01:52:42.074Z,0.00
2018-08-24T01:53:42.115Z,0.00
2018-08-24T01:54:42.153Z,0.00
2018-08-24T01:55:42.194Z,0.00
2018-08-24T01:56:42.231Z,0.00
2018-08-24T01:57:42.275Z,0.00
2018-08-24T01:58:42.313Z,0.00
2018-08-24T01:59:42.353Z,0.00
2018-08-24T02:00:42.393Z,0.00
2018-08-24T02:01:42.433Z,0.00
2018-08-24T02:02:42.474Z,0.00
2018-08-24T02:03:42.514Z,0.00
2018-08-24T02:04:42.553Z,0.00
2018-08-24T02:05:42.595Z,0.00
2018-08-24T02:06:42.634Z,0.00
2018-08-24T02:07:42.676Z,0.00
2018-08-24T02:08:42.719Z,0.00
2018-08-24T02:09:42.754Z,0.00
2018-08-24T02:10:42.795Z,0.00
2018-08-24T02:11:42.836Z,0.00
2018-08-24T02:12:42.874Z,0.00
2018-08-24T02:13:42.914Z,0.00
2018-08-24T02:14:42.958Z,0.00
2018-08-24T02:15:42.997Z,0.00
2018-08-24T02:16:43.034Z,0.00
2018-08-24T02:17:43.075Z,0.00
2018-08-24T02:18:43.114Z,0.00
2018-08-24T02:19:43.153Z,0.00
2018-08-24T02:20:43.203Z,0.00
2018-08-24T02:21:43.236Z,0.00
2018-08-24T02:22:43.282Z,0.00
2018-08-24T02:23:43.314Z,0.00
2018-08-24T02:24:43.354Z,0.00
2018-08-24T02:25:43.394Z,0.00
2018-08-24T02:26:43.436Z,0.00
2018-08-24T02:27:43.475Z,0.00
2018-08-24T02:28:43.515Z,0.00
2018-08-24T02:29:43.558Z,0.00
2018-08-24T02:30:43.595Z,0.00
2018-08-24T02:31:43.637Z,0.00
2018-08-24T02:32:43.676Z,0.00
2018-08-24T02:33:43.718Z,0.00
2018-08-24T02:34:43.757Z,0.00
2018-08-24T02:35:43.800Z,0.00
2018-08-24T02:36:43.836Z,0.00
2018-08-24T02:37:43.878Z,0.00
2018-08-24T02:38:43.918Z,0.00
2018-08-24T02:39:43.959Z,0.00
2018-08-24T02:40:44.016Z,0.00
2018-08-24T02:41:44.039Z,0.00
2018-08-24T02:42:44.078Z,0.00
2018-08-24T02:43:44.119Z,0.00
2018-08-24T02:44:44.157Z,0.00
2018-08-24T02:45:44.199Z,0.00
2018-08-24T02:46:44.242Z,0.00
2018-08-24T02:47:44.279Z,0.00
2018-08-24T02:48:44.318Z,0.00
2018-08-24T02:49:44.465Z,0.00
2018-08-24T02:50:44.398Z,0.00
2018-08-24T02:51:44.439Z,0.00
2018-08-24T02:52:44.481Z,0.00
2018-08-24T02:53:44.519Z,0.00
2018-08-24T02:54:44.559Z,0.00
2018-08-24T02:55:44.603Z,0.00
2018-08-24T02:56:44.640Z,0.00
2018-08-24T02:57:44.680Z,0.00
2018-08-24T02:58:44.720Z,0.00
2018-08-24T02:59:44.759Z,0.00
2018-08-24T03:00:44.800Z,0.00
2018-08-24T03:01:44.842Z,0.00
2018-08-24T03:02:44.886Z,0.00
2018-08-24T03:03:44.922Z,0.00
2018-08-24T03:04:44.960Z,0.00
2018-08-24T03:05:45.089Z,0.00
2018-08-24T03:06:45.042Z,0.00
2018-08-24T03:07:45.082Z,0.00
2018-08-24T03:08:45.124Z,0.00
2018-08-24T03:09:45.162Z,0.00
2018-08-24T03:10:45.209Z,0.00
2018-08-24T03:11:45.245Z,0.00
2018-08-24T03:12:45.283Z,0.00
2018-08-24T03:13:45.326Z,0.00
2018-08-24T03:14:45.363Z,0.00
2018-08-24T03:15:45.403Z,0.00
2018-08-24T03:16:45.444Z,0.00
2018-08-24T03:17:45.483Z,0.00
2018-08-24T03:18:45.523Z,0.00
2018-08-24T03:19:45.566Z,0.00
2018-08-24T03:20:45.604Z,0.00
2018-08-24T03:21:45.661Z,0.00
2018-08-24T03:22:45.684Z,0.00
2018-08-24T03:23:45.725Z,0.00
2018-08-24T03:24:45.764Z,0.00
2018-08-24T03:25:45.805Z,0.00
2018-08-24T03:26:45.846Z,0.00
2018-08-24T03:27:45.888Z,0.00
2018-08-24T03:28:45.926Z,0.00
2018-08-24T03:29:45.968Z,0.00
2018-08-24T03:30:46.007Z,0.00
2018-08-24T03:31:46.046Z,0.00
2018-08-24T03:32:46.088Z,0.00
2018-08-24T03:33:46.128Z,0.00
2018-08-24T03:34:46.168Z,0.00
2018-08-24T03:35:46.211Z,0.00
2018-08-24T03:36:46.351Z,0.00
2018-08-24T03:37:46.292Z,0.00
2018-08-24T03:38:46.328Z,0.00
2018-08-24T03:39:46.370Z,0.00
2018-08-24T03:40:46.411Z,0.00
2018-08-24T03:41:46.460Z,0.00
2018-08-24T03:42:46.495Z,0.00
2018-08-24T03:43:46.533Z,0.00
2018-08-24T03:44:46.575Z,0.00
2018-08-24T03:45:46.642Z,0.00
2018-08-24T03:46:46.653Z,0.00
2018-08-24T03:47:46.692Z,0.00
2018-08-24T03:48:46.733Z,4.00
2018-08-24T03:49:46.775Z,4.00
2018-08-24T03:50:46.813Z,4.00
2018-08-24T03:51:46.852Z,0.00
2018-08-24T03:52:46.994Z,0.00
2018-08-24T03:53:46.934Z,4.00
2018-08-24T03:54:46.974Z,0.00
2018-08-24T03:55:47.015Z,4.00
2018-08-24T03:56:47.056Z,4.00
2018-08-24T03:57:47.096Z,8.00
2018-08-24T03:58:47.137Z,8.00
2018-08-24T03:59:47.178Z,8.00
2018-08-24T04:00:47.216Z,12.00
2018-08-24T04:01:47.259Z,8.00
2018-08-24T04:02:47.299Z,12.00
2018-08-24T04:03:47.335Z,12.00
2018-08-24T04:04:47.378Z,16.00
2018-08-24T04:05:47.419Z,16.00
2018-08-24T04:06:47.457Z,16.00
2018-08-24T04:07:47.499Z,20.00
2018-08-24T04:08:47.537Z,28.00
2018-08-24T04:09:47.589Z,32.00
2018-08-24T04:10:47.617Z,36.00
2018-08-24T04:11:47.658Z,48.00
2018-08-24T04:12:47.734Z,56.00
2018-08-24T04:13:47.739Z,76.00
2018-08-24T04:14:47.781Z,88.00
2018-08-24T04:15:47.819Z,108.00
2018-08-24T04:16:47.864Z,128.00
2018-08-24T04:17:47.900Z,144.00
2018-08-24T04:18:47.939Z,160.00
2018-08-24T04:19:47.986Z,176.00
2018-08-24T04:20:48.022Z,196.00
2018-08-24T04:21:48.061Z,212.00
2018-08-24T04:22:48.101Z,232.00
2018-08-24T04:23:48.141Z,252.00
2018-08-24T04:24:48.182Z,276.00
2018-08-24T04:25:48.330Z,300.00
2018-08-24T04:26:48.263Z,328.00
2018-08-24T04:27:48.301Z,356.00
2018-08-24T04:28:48.342Z,388.00
2018-08-24T04:29:48.430Z,412.00
2018-08-24T04:30:48.425Z,440.00
2018-08-24T04:31:48.461Z,468.00
2018-08-24T04:32:48.502Z,504.00
2018-08-24T04:33:48.543Z,536.00
2018-08-24T04:34:48.640Z,572.00
2018-08-24T04:35:48.625Z,608.00
2018-08-24T04:36:48.664Z,644.00
2018-08-24T04:37:48.704Z,676.00
2018-08-24T04:38:48.743Z,712.00
2018-08-24T04:39:48.783Z,740.00
2018-08-24T04:40:48.824Z,768.00
2018-08-24T04:41:48.865Z,784.00
2018-08-24T04:42:48.902Z,808.00
2018-08-24T04:43:48.943Z,824.00
2018-08-24T04:44:48.985Z,848.00
2018-08-24T04:45:49.024Z,896.00
2018-08-24T04:46:49.063Z,936.00
2018-08-24T04:47:49.106Z,1032.00
2018-08-24T04:48:49.143Z,1148.00
2018-08-24T04:49:49.183Z,1264.00
2018-08-24T04:50:49.222Z,1408.00
2018-08-24T04:51:49.262Z,1572.00
2018-08-24T04:52:49.309Z,1736.00
2018-08-24T04:53:49.342Z,1884.00
2018-08-24T04:54:49.391Z,1992.00
2018-08-24T04:55:49.424Z,2088.00
2018-08-24T04:56:49.462Z,2160.00
2018-08-24T04:57:49.503Z,2184.00
2018-08-24T04:58:49.545Z,2220.00
2018-08-24T04:59:49.582Z,2284.00
2018-08-24T05:00:49.621Z,2372.00
2018-08-24T05:01:49.663Z,2424.00
2018-08-24T05:02:49.702Z,2460.00
2018-08-24T05:03:49.742Z,2528.00
2018-08-24T05:04:49.781Z,2604.00
2018-08-24T05:05:49.957Z,2640.00
2018-08-24T05:06:49.863Z,2628.00
2018-08-24T05:07:49.907Z,2668.00
2018-08-24T05:08:49.942Z,2740.00
2018-08-24T05:09:49.986Z,2800.00
2018-08-24T05:10:50.022Z,2876.00
2018-08-24T05:11:50.062Z,2944.00
2018-08-24T05:12:50.102Z,2996.00
2018-08-24T05:13:50.143Z,3012.00
2018-08-24T05:14:50.189Z,3012.00
2018-08-24T05:15:50.225Z,3024.00
2018-08-24T05:16:50.261Z,3080.00
2018-08-24T05:17:50.301Z,3048.00
2018-08-24T05:18:50.344Z,2996.00
2018-08-24T05:19:50.382Z,2964.00
2018-08-24T05:20:50.422Z,3032.00
2018-08-24T05:21:50.460Z,3260.00
2018-08-24T05:22:50.501Z,3340.00
2018-08-24T05:23:50.554Z,3256.00
2018-08-24T05:24:50.805Z,3200.00
2018-08-24T05:25:50.619Z,3232.00
2018-08-24T05:26:50.662Z,3184.00
2018-08-24T05:27:50.700Z,3196.00
2018-08-24T05:28:50.738Z,3200.00
2018-08-24T05:29:50.781Z,3032.00
2018-08-24T05:30:50.821Z,3156.00
2018-08-24T05:31:50.859Z,3172.00
2018-08-24T05:32:50.901Z,3144.00
2018-08-24T05:33:50.941Z,3140.00
2018-08-24T05:34:50.979Z,3272.00
2018-08-24T05:35:51.020Z,3348.00
2018-08-24T05:36:51.060Z,3460.00
2018-08-24T05:37:51.108Z,3620.00
2018-08-24T05:38:51.140Z,3768.00
2018-08-24T05:39:51.187Z,3844.00
2018-08-24T05:40:51.219Z,3896.00
2018-08-24T05:41:51.259Z,3864.00
2018-08-24T05:42:51.300Z,3780.00
2018-08-24T05:43:51.340Z,3776.00
2018-08-24T05:44:51.380Z,3768.00
2018-08-24T05:45:51.419Z,3752.00
2018-08-24T05:46:51.462Z,3820.00
2018-08-24T05:47:51.499Z,3904.00
2018-08-24T05:48:51.588Z,4024.00
2018-08-24T05:49:51.580Z,4144.00
2018-08-24T05:50:51.626Z,4268.00
2018-08-24T05:51:51.668Z,4476.00
2018-08-24T05:52:51.699Z,4700.00
2018-08-24T05:53:51.739Z,4660.00
2018-08-24T05:54:51.777Z,4544.00
2018-08-24T05:55:51.818Z,4696.00
2018-08-24T05:56:51.858Z,5012.00
2018-08-24T05:57:51.903Z,4984.00
2018-08-24T05:58:51.938Z,4692.00
2018-08-24T05:59:51.979Z,4568.00
2018-08-24T06:00:52.022Z,4728.00
2018-08-24T06:01:52.064Z,4820.00
2018-08-24T06:02:52.100Z,4608.00
2018-08-24T06:03:52.141Z,4344.00
2018-08-24T06:04:52.181Z,4396.00
2018-08-24T06:05:52.249Z,4412.00
2018-08-24T06:06:52.269Z,4432.00
2018-08-24T06:07:52.302Z,4600.00
2018-08-24T06:08:52.343Z,4736.00
2018-08-24T06:09:52.382Z,4712.00
2018-08-24T06:10:52.427Z,4536.00
2018-08-24T06:11:52.462Z,4200.00
2018-08-24T06:12:52.502Z,3832.00
2018-08-24T06:13:52.542Z,3716.00
2018-08-24T06:14:52.582Z,3656.00
2018-08-24T06:15:52.672Z,3660.00
2018-08-24T06:16:52.731Z,3500.00
2018-08-24T06:17:52.703Z,3316.00
2018-08-24T06:18:52.758Z,3244.00
2018-08-24T06:19:52.784Z,3380.00
2018-08-24T06:20:52.835Z,3552.00
2018-08-24T06:21:52.864Z,3672.00
2018-08-24T06:22:52.921Z,3736.00
2018-08-24T06:23:52.995Z,3968.00
2018-08-24T06:24:52.986Z,4240.00
2018-08-24T06:25:53.027Z,4344.00
2018-08-24T06:26:53.068Z,4532.00
2018-08-24T06:27:53.108Z,4712.00
2018-08-24T06:28:53.151Z,4712.00
2018-08-24T06:29:53.189Z,4720.00
2018-08-24T06:30:53.227Z,5052.00
2018-08-24T06:31:53.270Z,5408.00
2018-08-24T06:32:53.379Z,5608.00
2018-08-24T06:33:53.412Z,5876.00
2018-08-24T06:34:53.392Z,6108.00
2018-08-24T06:35:53.440Z,6184.00
2018-08-24T06:36:53.539Z,6272.00
2018-08-24T06:37:53.514Z,6560.00
2018-08-24T06:38:53.554Z,6752.00
2018-08-24T06:39:53.594Z,6752.00
2018-08-24T06:40:53.637Z,6640.00
2018-08-24T06:41:53.701Z,6360.00
2018-08-24T06:42:53.717Z,6188.00
2018-08-24T06:43:53.757Z,6472.00
2018-08-24T06:44:53.807Z,6600.00
2018-08-24T06:45:53.841Z,6348.00
2018-08-24T06:46:53.884Z,6416.00
2018-08-24T06:47:53.920Z,6268.00
2018-08-24T06:48:53.962Z,5860.00
2018-08-24T06:49:54.003Z,5772.00
2018-08-24T06:50:54.052Z,5592.00
2018-08-24T06:51:54.084Z,5096.00
2018-08-24T06:52:54.183Z,4996.00
2018-08-24T06:53:54.237Z,5492.00
2018-08-24T06:54:54.207Z,5752.00
2018-08-24T06:55:54.246Z,5400.00
2018-08-24T06:56:54.292Z,5436.00
2018-08-24T06:57:54.340Z,5752.00
2018-08-24T06:58:54.371Z,6756.00
2018-08-24T06:59:54.420Z,7784.00
2018-08-24T07:00:54.464Z,8120.00
2018-08-24T07:01:54.496Z,8176.00
2018-08-24T07:02:54.538Z,7424.00
2018-08-24T07:03:54.575Z,7032.00
2018-08-24T07:04:54.617Z,7340.00
2018-08-24T07:05:54.726Z,8292.00
2018-08-24T07:06:54.701Z,8900.00
2018-08-24T07:07:54.743Z,10144.00
2018-08-24T07:08:54.786Z,10632.00
2018-08-24T07:09:54.826Z,11112.00
2018-08-24T07:10:54.869Z,11924.00
2018-08-24T07:11:54.906Z,12664.00
2018-08-24T07:12:55.000Z,12924.00
2018-08-24T07:13:54.988Z,13752.00
2018-08-24T07:14:55.029Z,13708.00
2018-08-24T07:15:55.083Z,12820.00
2018-08-24T07:16:55.116Z,12448.00
2018-08-24T07:17:55.156Z,12636.00
2018-08-24T07:18:55.195Z,12680.00
2018-08-24T07:19:55.240Z,12752.00
2018-08-24T07:20:55.277Z,12940.00
2018-08-24T07:21:55.320Z,13232.00
2018-08-24T07:22:55.361Z,13076.00
2018-08-24T07:23:55.402Z,13600.00
2018-08-24T07:24:55.444Z,13876.00
2018-08-24T07:25:55.488Z,13868.00
2018-08-24T07:26:55.526Z,13692.00
2018-08-24T07:27:55.569Z,13800.00
2018-08-24T07:28:55.610Z,14116.00
2018-08-24T07:29:55.654Z,14276.00
2018-08-24T07:30:55.696Z,14492.00
2018-08-24T07:31:55.737Z,15012.00
2018-08-24T07:32:55.778Z,15672.00
2018-08-24T07:33:55.820Z,15912.00
2018-08-24T07:34:55.863Z,16672.00
2018-08-24T07:35:55.903Z,17632.00
2018-08-24T07:36:55.945Z,18112.00
2018-08-24T07:37:55.998Z,18400.00
2018-08-24T07:38:56.030Z,17856.00
2018-08-24T07:39:56.071Z,17248.00
2018-08-24T07:40:56.126Z,17568.00
2018-08-24T07:41:56.206Z,17792.00
2018-08-24T07:42:56.199Z,16928.00
2018-08-24T07:43:56.248Z,15148.00
2018-08-24T07:44:56.282Z,14128.00
2018-08-24T07:45:56.324Z,14396.00
2018-08-24T07:46:56.366Z,15284.00
2018-08-24T07:47:56.411Z,15776.00
2018-08-24T07:48:56.459Z,14976.00
2018-08-24T07:49:56.493Z,14664.00
2018-08-24T07:50:56.612Z,14988.00
2018-08-24T07:51:56.577Z,14780.00
2018-08-24T07:52:56.623Z,14276.00
2018-08-24T07:53:56.663Z,13752.00
2018-08-24T07:54:56.704Z,13004.00
2018-08-24T07:55:56.746Z,12196.00
2018-08-24T07:56:56.832Z,11452.00
2018-08-24T07:57:56.834Z,10772.00
2018-08-24T07:58:56.874Z,10164.00
2018-08-24T07:59:57.025Z,9620.00
2018-08-24T08:00:56.960Z,9164.00
2018-08-24T08:01:57.001Z,8884.00
2018-08-24T08:02:57.045Z,8620.00
2018-08-24T08:03:57.089Z,8408.00
2018-08-24T08:04:57.129Z,8312.00
2018-08-24T08:05:57.176Z,8360.00
2018-08-24T08:06:57.215Z,8492.00
2018-08-24T08:07:57.263Z,8628.00
2018-08-24T08:08:57.301Z,8804.00
2018-08-24T08:09:57.341Z,9040.00
2018-08-24T08:10:57.384Z,9316.00
2018-08-24T08:11:57.428Z,9952.00
2018-08-24T08:12:57.468Z,10484.00
2018-08-24T08:13:57.512Z,10744.00
2018-08-24T08:14:57.553Z,10668.00
2018-08-24T08:15:57.595Z,10428.00
2018-08-24T08:16:57.641Z,9944.00
2018-08-24T08:17:57.679Z,9448.00
2018-08-24T08:18:57.721Z,9120.00
2018-08-24T08:19:57.825Z,8672.00
2018-08-24T08:20:57.806Z,8068.00
2018-08-24T08:21:57.848Z,7432.00
2018-08-24T08:22:57.890Z,7032.00
2018-08-24T08:23:57.932Z,6872.00
2018-08-24T08:24:57.975Z,6852.00
2018-08-24T08:25:58.016Z,6952.00
2018-08-24T08:26:58.060Z,7068.00
2018-08-24T08:27:58.100Z,7128.00
2018-08-24T08:28:58.181Z,7136.00
2018-08-24T08:29:58.193Z,7036.00
2018-08-24T08:30:58.226Z,6964.00
2018-08-24T08:31:58.269Z,7104.00
2018-08-24T08:32:58.311Z,7604.00
2018-08-24T08:33:58.355Z,8220.00
2018-08-24T08:34:58.398Z,8660.00
2018-08-24T08:35:58.437Z,8808.00
2018-08-24T08:36:58.479Z,8748.00
2018-08-24T08:37:58.527Z,8668.00
2018-08-24T08:38:58.635Z,8492.00
2018-08-24T08:39:58.606Z,8228.00
2018-08-24T08:40:58.656Z,7828.00
2018-08-24T08:41:58.689Z,7384.00
2018-08-24T08:42:58.732Z,7012.00
2018-08-24T08:43:58.774Z,6712.00
2018-08-24T08:44:58.828Z,6452.00
2018-08-24T08:45:58.856Z,6280.00
2018-08-24T08:46:58.898Z,6240.00
2018-08-24T08:47:58.942Z,6320.00
2018-08-24T08:48:58.983Z,6432.00
2018-08-24T08:49:59.023Z,6604.00
2018-08-24T08:50:59.067Z,6768.00
2018-08-24T08:51:59.107Z,6908.00
2018-08-24T08:52:59.150Z,6952.00
2018-08-24T08:53:59.200Z,6868.00
2018-08-24T08:54:59.233Z,6596.00
2018-08-24T08:55:59.283Z,6192.00
2018-08-24T08:56:59.316Z,5836.00
2018-08-24T08:57:59.360Z,5648.00
2018-08-24T08:58:59.401Z,5640.00
2018-08-24T08:59:59.459Z,5768.00
2018-08-24T09:00:59.495Z,5936.00
2018-08-24T09:01:59.526Z,6084.00
2018-08-24T09:02:59.573Z,6092.00
2018-08-24T09:03:59.616Z,5980.00
2018-08-24T09:04:59.653Z,5916.00
2018-08-24T09:05:59.745Z,6000.00
2018-08-24T09:06:59.738Z,6228.00
2018-08-24T09:07:59.787Z,6404.00
2018-08-24T09:08:59.818Z,6400.00
2018-08-24T09:09:59.863Z,6432.00
2018-08-24T09:10:59.901Z,6556.00
2018-08-24T09:11:59.942Z,6668.00
2018-08-24T09:13:00.021Z,6572.00
2018-08-24T09:14:00.024Z,6380.00
2018-08-24T09:15:00.064Z,6408.00
2018-08-24T09:16:00.106Z,6564.00
2018-08-24T09:17:00.150Z,6668.00
2018-08-24T09:18:00.189Z,6632.00
2018-08-24T09:19:00.232Z,6512.00
2018-08-24T09:20:00.272Z,6384.00
2018-08-24T09:21:00.323Z,6312.00
2018-08-24T09:22:00.358Z,6296.00
2018-08-24T09:23:00.402Z,6412.00
2018-08-24T09:24:00.451Z,6700.00
2018-08-24T09:25:00.480Z,6908.00
2018-08-24T09:26:00.520Z,6964.00
2018-08-24T09:27:00.568Z,7072.00
2018-08-24T09:28:00.604Z,7140.00
2018-08-24T09:29:00.644Z,7168.00
2018-08-24T09:30:00.687Z,7268.00
2018-08-24T09:31:00.777Z,7520.00
2018-08-24T09:32:00.778Z,7696.00
2018-08-24T09:33:00.964Z,7640.00
2018-08-24T09:34:00.853Z,7512.00
2018-08-24T09:35:00.900Z,7400.00
2018-08-24T09:36:00.936Z,7516.00
2018-08-24T09:37:00.978Z,7896.00
2018-08-24T09:38:01.089Z,8320.00
2018-08-24T09:39:01.057Z,8588.00
2018-08-24T09:40:01.099Z,8536.00
2018-08-24T09:41:01.142Z,8144.00
2018-08-24T09:42:01.183Z,7728.00
2018-08-24T09:43:01.238Z,7696.00
2018-08-24T09:44:01.264Z,7856.00
2018-08-24T09:45:01.306Z,8116.00
2018-08-24T09:46:01.347Z,8900.00
2018-08-24T09:47:01.389Z,10248.00
2018-08-24T09:48:01.431Z,11732.00
2018-08-24T09:49:01.515Z,13408.00
2018-08-24T09:50:01.513Z,14788.00
2018-08-24T09:51:01.555Z,15204.00
2018-08-24T09:52:01.595Z,15340.00
2018-08-24T09:53:01.637Z,15460.00
2018-08-24T09:54:01.688Z,14864.00
2018-08-24T09:55:01.720Z,13588.00
2018-08-24T09:56:01.772Z,12068.00
2018-08-24T09:57:01.855Z,10588.00
2018-08-24T09:58:01.845Z,9276.00
2018-08-24T09:59:01.888Z,8452.00
2018-08-24T10:00:01.931Z,8108.00
2018-08-24T10:01:01.972Z,8080.00
2018-08-24T10:02:02.024Z,8276.00
2018-08-24T10:03:02.052Z,8516.00
2018-08-24T10:04:02.095Z,9348.00
2018-08-24T10:05:02.137Z,11616.00
2018-08-24T10:06:02.187Z,14232.00
2018-08-24T10:07:02.218Z,15420.00
2018-08-24T10:08:02.262Z,15728.00
2018-08-24T10:09:02.308Z,15900.00
2018-08-24T10:10:02.348Z,15836.00
2018-08-24T10:11:02.389Z,15392.00
2018-08-24T10:12:02.427Z,14476.00
2018-08-24T10:13:02.468Z,13372.00
2018-08-24T10:14:02.511Z,12552.00
2018-08-24T10:15:02.550Z,12264.00
2018-08-24T10:16:02.592Z,12004.00
2018-08-24T10:17:02.634Z,11544.00
2018-08-24T10:18:02.678Z,11808.00
2018-08-24T10:19:02.718Z,12284.00
2018-08-24T10:20:02.761Z,12108.00
2018-08-24T10:21:02.803Z,12240.00
2018-08-24T10:22:02.849Z,11776.00
2018-08-24T10:23:02.950Z,11136.00
2018-08-24T10:24:02.926Z,11176.00
2018-08-24T10:25:02.978Z,10936.00
2018-08-24T10:26:03.018Z,10660.00
2018-08-24T10:27:03.054Z,11088.00
2018-08-24T10:28:03.097Z,11760.00
2018-08-24T10:29:03.139Z,12388.00
2018-08-24T10:30:03.181Z,12748.00
2018-08-24T10:31:03.223Z,12836.00
2018-08-24T10:32:03.265Z,12564.00
2018-08-24T10:33:03.306Z,12236.00
2018-08-24T10:34:03.365Z,12248.00
2018-08-24T10:35:03.390Z,12536.00
2018-08-24T10:36:03.434Z,12884.00
2018-08-24T10:37:03.473Z,12928.00
2018-08-24T10:38:03.534Z,12752.00
2018-08-24T10:39:03.622Z,12424.00
2018-08-24T10:40:03.601Z,11852.00
2018-08-24T10:41:03.643Z,11200.00
2018-08-24T10:42:03.685Z,11160.00
2018-08-24T10:43:03.725Z,12376.00
2018-08-24T10:44:03.768Z,14276.00
2018-08-24T10:45:03.810Z,15852.00
2018-08-24T10:46:03.852Z,16768.00
2018-08-24T10:47:03.894Z,17024.00
2018-08-24T10:48:03.946Z,17280.00
2018-08-24T10:49:03.995Z,17696.00
2018-08-24T10:50:04.030Z,17664.00
2018-08-24T10:51:04.069Z,16864.00
2018-08-24T10:52:04.106Z,15944.00
2018-08-24T10:53:04.147Z,16128.00
2018-08-24T10:54:04.189Z,17344.00
2018-08-24T10:55:04.232Z,18624.00
2018-08-24T10:56:04.384Z,19424.00
2018-08-24T10:57:04.321Z,19808.00
2018-08-24T10:58:04.357Z,20544.00
2018-08-24T10:59:04.401Z,21472.00
2018-08-24T11:00:04.449Z,21792.00
2018-08-24T11:01:04.486Z,21856.00
2018-08-24T11:02:04.623Z,21696.00
2018-08-24T11:03:04.569Z,21344.00
2018-08-24T11:04:04.622Z,20992.00
2018-08-24T11:05:04.663Z,20192.00
2018-08-24T11:06:04.698Z,19232.00
2018-08-24T11:07:04.793Z,17568.00
2018-08-24T11:08:04.784Z,16196.00
2018-08-24T11:09:04.827Z,15164.00
2018-08-24T11:10:04.869Z,13308.00
2018-08-24T11:11:04.912Z,11452.00
2018-08-24T11:12:04.955Z,10296.00
2018-08-24T11:13:04.998Z,9776.00
2018-08-24T11:14:05.041Z,10076.00
2018-08-24T11:15:05.083Z,10840.00
2018-08-24T11:16:05.126Z,11152.00
2018-08-24T11:17:05.177Z,11556.00
2018-08-24T11:18:05.212Z,13028.00
2018-08-24T11:19:05.262Z,15004.00
2018-08-24T11:20:05.297Z,16672.00
2018-08-24T11:21:05.346Z,17824.00
2018-08-24T11:22:05.383Z,18144.00
2018-08-24T11:23:05.507Z,18112.00
2018-08-24T11:24:05.469Z,18048.00
2018-08-24T11:25:05.511Z,18208.00
2018-08-24T11:26:05.612Z,18560.00
2018-08-24T11:27:05.596Z,18592.00
2018-08-24T11:28:05.640Z,18560.00
2018-08-24T11:29:05.684Z,18624.00
2018-08-24T11:30:05.728Z,18432.00
2018-08-24T11:31:05.767Z,18240.00
2018-08-24T11:32:05.813Z,18272.00
2018-08-24T11:33:05.856Z,18432.00
2018-08-24T11:34:05.904Z,18272.00
2018-08-24T11:35:05.941Z,17856.00
2018-08-24T11:36:06.099Z,17824.00
2018-08-24T11:37:06.025Z,18016.00
2018-08-24T11:38:06.082Z,18112.00
2018-08-24T11:39:06.110Z,17728.00
2018-08-24T11:40:06.155Z,16896.00
2018-08-24T11:41:06.197Z,15872.00
2018-08-24T11:42:06.306Z,14784.00
2018-08-24T11:43:06.286Z,14120.00
2018-08-24T11:44:06.325Z,13432.00
2018-08-24T11:45:06.370Z,13132.00
2018-08-24T11:46:06.417Z,12452.00
2018-08-24T11:47:06.467Z,11620.00
2018-08-24T11:48:06.499Z,10940.00
2018-08-24T11:49:06.541Z,10308.00
2018-08-24T11:50:06.585Z,10244.00
2018-08-24T11:51:06.627Z,10496.00
2018-08-24T11:52:06.669Z,11636.00
2018-08-24T11:53:06.711Z,12440.00
2018-08-24T11:54:06.804Z,13456.00
2018-08-24T11:55:06.802Z,13784.00
2018-08-24T11:56:06.901Z,13968.00
2018-08-24T11:57:06.897Z,13872.00
2018-08-24T11:58:06.927Z,13968.00
2018-08-24T11:59:06.971Z,14500.00
2018-08-24T12:00:07.013Z,14892.00
2018-08-24T12:01:07.062Z,14624.00
2018-08-24T12:02:07.190Z,14648.00
2018-08-24T12:03:07.153Z,14972.00
2018-08-24T12:04:07.185Z,14788.00
2018-08-24T12:05:07.226Z,14804.00
2018-08-24T12:06:07.322Z,14124.00
2018-08-24T12:07:07.314Z,13604.00
2018-08-24T12:08:07.604Z,13424.00
2018-08-24T12:09:07.402Z,13272.00
2018-08-24T12:10:07.445Z,13636.00
2018-08-24T12:11:07.487Z,13416.00
2018-08-24T12:12:07.636Z,13280.00
2018-08-24T12:13:07.577Z,13068.00
2018-08-24T12:14:07.617Z,13168.00
2018-08-24T12:15:07.663Z,13364.00
2018-08-24T12:16:07.697Z,13184.00
2018-08-24T12:17:07.740Z,12784.00
2018-08-24T12:18:07.789Z,12440.00
2018-08-24T12:19:07.824Z,12228.00
2018-08-24T12:20:07.867Z,12272.00
2018-08-24T12:21:07.930Z,13180.00
2018-08-24T12:22:07.955Z,14636.00
2018-08-24T12:23:07.997Z,15648.00
2018-08-24T12:24:08.040Z,15868.00
2018-08-24T12:25:08.083Z,16512.00
2018-08-24T12:26:08.125Z,17984.00
2018-08-24T12:27:08.258Z,18880.00
2018-08-24T12:28:08.222Z,19168.00
2018-08-24T12:29:08.253Z,17472.00
2018-08-24T12:30:08.306Z,16288.00
2018-08-24T12:31:08.342Z,15024.00
2018-08-24T12:32:08.384Z,14972.00